Quinsam — VY6800 — position and weather

sailwx.info

Track history (hours):
 
Tides and Currents Weather Stations Pressure Air Temp Water Temp Dewpoint Dewpoint Depression Visibility Wind Speed Wind Dir Waves Ship Positions

Quinsam

Last reported at 2015-Sep-04 18:33 UTC. Time now 2015-Sep-04 18:46 UTC.
Position N 49°10' W 123°54'.

Length 88 m; draft 1.5 m.

Type: Ship. MMSI: 316001266.

Date/timePositionNaut miles runAvg speedWind from/ knotsBaromVisibWave heightAir tempDewpointWater temp
2015-Sep-04 18:33N 49°10' W 123°54'1 1.1
2015-Sep-04 17:33N 49°10' W 123°56'1 1.1
2015-Sep-04 16:34N 49°10' W 123°54'2 1.8
2015-Sep-04 15:33N 49°11' W 123°52'0 0.0
2015-Sep-04 14:33N 49°11' W 123°52'2 2.4
2015-Sep-04 13:33N 49°10' W 123°55'2 2.3
2015-Sep-04 12:29N 49°11' W 123°52'0 0.0
2015-Sep-04 11:29N 49°11' W 123°52'0 0.0
2015-Sep-04 10:32N 49°11' W 123°52'0 0.0
2015-Sep-04 09:17N 49°11' W 123°52'0 0.0
2015-Sep-04 06:21N 49°11' W 123°52'0 0.0
2015-Sep-04 05:34N 49°11' W 123°52'0 0.3
2015-Sep-04 04:33N 49°11' W 123°52'1 1.0
2015-Sep-04 03:33N 49°10' W 123°54'0 0.3
2015-Sep-04 02:33N 49°10' W 123°54'1 1.2
2015-Sep-04 01:33N 49°10' W 123°56'0 0.1
2015-Sep-04 00:33N 49°10' W 123°56'1 1.3
2015-Sep-03 23:33N 49°10' W 123°54'2 1.6
2015-Sep-03 22:33N 49°11' W 123°52'3 2.7
2015-Sep-03 21:34N 49°10' W 123°56'0 0.2
2015-Sep-03 20:33N 49°10' W 123°56'3 2.9
2015-Sep-03 19:33N 49°11' W 123°52'0 0.1
2015-Sep-03 18:33N 49°11' W 123°52'2 2.4
2015-Sep-03 17:33N 49°10' W 123°55'0 0.4
2015-Sep-03 16:33N 49°10' W 123°56'2 2.3
2015-Sep-03 15:33N 49°11' W 123°53'1 0.7
2015-Sep-03 14:33N 49°11' W 123°52'2 2.4
2015-Sep-03 13:33N 49°10' W 123°55'2 2.3
2015-Sep-03 12:30N 49°11' W 123°52'0 0.0
2015-Sep-03 11:33N 49°11' W 123°52'0 0.0
2015-Sep-03 10:24N 49°11' W 123°52'0 0.0
2015-Sep-03 09:30N 49°11' W 123°52'0 0.0
2015-Sep-03 08:18N 49°11' W 123°52'0 0.0
2015-Sep-03 06:30N 49°11' W 123°52'3 3.0
2015-Sep-03 05:33N 49°10' W 123°56'3 2.5
2015-Sep-03 04:33N 49°11' W 123°52'0 0.1
2015-Sep-03 03:33N 49°11' W 123°52'1 1.3
2015-Sep-03 02:33N 49°10' W 123°54'1 1.0
2015-Sep-03 01:33N 49°11' W 123°53'1 0.5
2015-Sep-03 00:33N 49°11' W 123°52'0 0.1
2015-Sep-02 23:33N 49°11' W 123°52'3 2.7
2015-Sep-02 22:33N 49°10' W 123°55'0 0.2
2015-Sep-02 21:33N 49°10' W 123°56'2 1.7
2015-Sep-02 20:32N 49°11' W 123°53'1 1.2
2015-Sep-02 19:32N 49°11' W 123°52'2 2.3
2015-Sep-02 18:33N 49°10' W 123°55'1 0.6
2015-Sep-02 17:27N 49°10' W 123°56'1 0.8
2015-Sep-02 16:33N 49°10' W 123°55'2 2.2
2015-Sep-02 15:33N 49°11' W 123°52'0 0.0
2015-Sep-02 14:19N 49°11' W 123°52'2 3.2
2015-Sep-02 13:33N 49°10' W 123°55'2 2.3
2015-Sep-02 12:29N 49°11' W 123°52'0 0.0
2015-Sep-02 11:29N 49°11' W 123°52'0 0.0
2015-Sep-02 10:29N 49°11' W 123°52'0 0.0
2015-Sep-02 09:29N 49°11' W 123°52'0 0.0
2015-Sep-02 08:29N 49°11' W 123°52'0 0.0
2015-Sep-02 07:29N 49°11' W 123°52'0 0.0
2015-Sep-02 06:29N 49°11' W 123°52'1 0.6
2015-Sep-02 05:33N 49°11' W 123°52'0 0.0
2015-Sep-02 04:33N 49°11' W 123°52'1 0.9
2015-Sep-02 03:33N 49°10' W 123°54'1 1.1
2015-Sep-02 02:33N 49°11' W 123°52'0 0.2
2015-Sep-02 01:31N 49°11' W 123°52'0 0.0
2015-Sep-02 00:33N 49°11' W 123°52'2 2.1
2015-Sep-01 23:34N 49°10' W 123°55'1 0.8
2015-Sep-01 22:33N 49°10' W 123°56'1 0.9
2015-Sep-01 21:33N 49°10' W 123°55'2 2.0
2015-Sep-01 20:33N 49°11' W 123°52'0 0.0
2015-Sep-01 19:33N 49°11' W 123°52'2 2.3
2015-Sep-01 18:33N 49°10' W 123°55'1 0.6
2015-Sep-01 17:33N 49°10' W 123°56'1 0.8
2015-Sep-01 16:33N 49°10' W 123°55'2 2.1
2015-Sep-01 15:33N 49°11' W 123°52'0 0.0
2015-Sep-01 14:33N 49°11' W 123°52'3 2.9
2015-Sep-01 13:33N 49°10' W 123°56'3 2.9
2015-Sep-01 12:33N 49°11' W 123°52'0 0.0
2015-Sep-01 11:33N 49°11' W 123°52'0 0.0
2015-Sep-01 10:33N 49°11' W 123°52'0 0.0
2015-Sep-01 09:33N 49°11' W 123°52'0 0.0
2015-Sep-01 08:33N 49°11' W 123°52'0 0.0
2015-Sep-01 07:33N 49°11' W 123°52'0 0.0
2015-Sep-01 06:33N 49°11' W 123°52'0 0.5
2015-Sep-01 05:33N 49°11' W 123°52'0 0.2
2015-Sep-01 04:33N 49°11' W 123°52'1 1.2
2015-Sep-01 03:33N 49°10' W 123°54'1 1.4
2015-Sep-01 02:33N 49°11' W 123°52'0 0.0
2015-Sep-01 01:33N 49°11' W 123°52'0 0.0
2015-Sep-01 00:33N 49°11' W 123°52'2 2.0
2015-Aug-31 23:34N 49°10' W 123°54'1 0.9
2015-Aug-31 22:33N 49°10' W 123°56'1 1.2
2015-Aug-31 21:33N 49°10' W 123°54'2 1.7
2015-Aug-31 20:33N 49°11' W 123°52'0 0.0
2015-Aug-31 19:33N 49°11' W 123°52'2 2.1
2015-Aug-31 18:33N 49°10' W 123°55'1 0.8
2015-Aug-31 17:33N 49°10' W 123°56'1 1.0
2015-Aug-31 16:33N 49°10' W 123°54'2 2.0
2015-Aug-31 15:34N 49°11' W 123°52'0 0.0
2015-Aug-31 14:33N 49°11' W 123°52'3 2.7
2015-Aug-31 13:34N 49°10' W 123°56'3 2.7
2015-Aug-31 12:33N 49°11' W 123°52'0 0.0
2015-Aug-31 11:33N 49°11' W 123°52'0 0.0
2015-Aug-31 10:33N 49°11' W 123°52'0 0.0
2015-Aug-31 09:33N 49°11' W 123°52'0 0.0
2015-Aug-31 08:33N 49°11' W 123°52'0 0.0
2015-Aug-31 07:33N 49°11' W 123°52'0 0.0
2015-Aug-31 06:33N 49°11' W 123°52'0 0.5
2015-Aug-31 05:34N 49°11' W 123°52'0 0.0
2015-Aug-31 04:33N 49°11' W 123°52'1 0.8
2015-Aug-31 03:33N 49°10' W 123°53'1 1.0
2015-Aug-31 02:33N 49°11' W 123°52'0 0.2
2015-Aug-31 01:28N 49°11' W 123°52'0 0.0
2015-Aug-31 00:33N 49°11' W 123°52'0 0.4
2015-Aug-30 23:33N 49°11' W 123°52'2 2.5
2015-Aug-30 22:33N 49°10' W 123°56'3 1.4
2015-Aug-30 20:34N 49°11' W 123°52'0 0.1
2015-Aug-30 19:31N 49°11' W 123°52'2 2.0
2015-Aug-30 18:33N 49°10' W 123°54'1 0.9
2015-Aug-30 17:33N 49°10' W 123°56'1 1.5
2015-Aug-30 16:33N 49°10' W 123°54'1 1.3
2015-Aug-30 15:32N 49°11' W 123°52'3 2.8
2015-Aug-30 14:31N 49°10' W 123°56'0 0.5
2015-Aug-30 13:30N 49°10' W 123°55'2 0.3
2015-Aug-30 06:27N 49°11' W 123°52'0 0.4
2015-Aug-30 05:33N 49°11' W 123°52'0 0.1
2015-Aug-30 04:33N 49°11' W 123°52'1 0.5
2015-Aug-30 03:33N 49°10' W 123°53'1 0.6
2015-Aug-30 02:33N 49°11' W 123°52'0 0.4
2015-Aug-30 01:33N 49°11' W 123°52'0 0.0
2015-Aug-30 00:28N 49°11' W 123°52'1 1.3
2015-Aug-29 23:32N 49°10' W 123°53'2 1.7
2015-Aug-29 22:33N 49°10' W 123°56'3 1.4
2015-Aug-29 20:33N 49°11' W 123°52'0 0.1
2015-Aug-29 19:33N 49°11' W 123°52'2 2.0
2015-Aug-29 18:33N 49°10' W 123°54'1 0.9
2015-Aug-29 17:33N 49°10' W 123°56'1 1.3
2015-Aug-29 16:33N 49°11' W 123°54'1 1.3
2015-Aug-29 15:30N 49°11' W 123°52'0 0.4
2015-Aug-29 14:33N 49°11' W 123°52'3 2.8
2015-Aug-29 13:33N 49°10' W 123°56'3 0.9
2015-Aug-29 10:23N 49°11' W 123°52'0 0.0
2015-Aug-29 09:29N 49°11' W 123°52'0 0.0
2015-Aug-29 08:32N 49°11' W 123°52'0 0.0
2015-Aug-29 07:32N 49°11' W 123°52'0 0.0
2015-Aug-29 06:32N 49°11' W 123°52'1 0.6
2015-Aug-29 05:34N 49°11' W 123°52'0 0.4
2015-Aug-29 04:32N 49°11' W 123°52'1 1.0
2015-Aug-29 03:33N 49°10' W 123°53'1 0.8
2015-Aug-29 02:33N 49°11' W 123°52'0 0.4
2015-Aug-29 01:33N 49°11' W 123°52'0 0.0
2015-Aug-29 00:27N 49°11' W 123°52'2 2.0
2015-Aug-28 23:34N 49°10' W 123°54'1 1.1
2015-Aug-28 22:33N 49°10' W 123°56'1 1.1
2015-Aug-28 21:33N 49°10' W 123°54'2 1.8
2015-Aug-28 20:33N 49°11' W 123°52'0 0.0
2015-Aug-28 19:33N 49°11' W 123°52'2 2.3
2015-Aug-28 18:33N 49°10' W 123°55'1 0.6
2015-Aug-28 17:32N 49°10' W 123°56'1 1.4
2015-Aug-28 16:33N 49°10' W 123°54'2 1.5
2015-Aug-28 15:33N 49°11' W 123°52'0 0.0
2015-Aug-28 14:29N 49°11' W 123°52'2 2.5
2015-Aug-28 13:34N 49°10' W 123°55'2 1.1
2015-Aug-28 11:22N 49°11' W 123°52'3 0.6
2015-Aug-28 06:32N 49°10' W 123°56'3 2.9
2015-Aug-28 05:33N 49°11' W 123°52'0 0.2
2015-Aug-28 04:33N 49°11' W 123°52'1 0.9
2015-Aug-28 03:33N 49°10' W 123°53'1 0.6
2015-Aug-28 02:33N 49°11' W 123°52'0 0.4
2015-Aug-28 01:34N 49°11' W 123°52'0 0.0
2015-Aug-28 00:33N 49°11' W 123°52'1 0.7
2015-Aug-27 23:33N 49°11' W 123°53'2 2.2
2015-Aug-27 22:32N 49°10' W 123°56'0 0.0
2015-Aug-27 21:33N 49°10' W 123°56'3 2.7
2015-Aug-27 20:31N 49°11' W 123°52'0 0.1
2015-Aug-27 19:33N 49°11' W 123°52'2 2.4
2015-Aug-27 18:33N 49°10' W 123°55'1 0.5
2015-Aug-27 17:33N 49°10' W 123°56'0 0.4
2015-Aug-27 16:33N 49°10' W 123°55'2 2.0
2015-Aug-27 15:29N 49°11' W 123°52'0 0.4
2015-Aug-27 14:32N 49°11' W 123°52'2 2.5
2015-Aug-27 13:33N 49°10' W 123°55'2 1.7
2015-Aug-27 12:10N 49°11' W 123°52'0 0.0
2015-Aug-27 11:28N 49°11' W 123°52'0 0.0
2015-Aug-27 09:10N 49°11' W 123°52'0 0.0
2015-Aug-27 08:28N 49°11' W 123°52'0 0.0
2015-Aug-27 07:28N 49°11' W 123°52'0 0.4
2015-Aug-27 06:32N 49°11' W 123°52'3 2.6
2015-Aug-27 05:33N 49°10' W 123°56'3 2.9
2015-Aug-27 04:33N 49°11' W 123°52'1 1.3
2015-Aug-27 03:33N 49°10' W 123°53'1 1.5
2015-Aug-27 02:33N 49°10' W 123°56'1 1.5
2015-Aug-27 01:33N 49°10' W 123°53'1 1.2
2015-Aug-27 00:31N 49°11' W 123°52'0 0.4
2015-Aug-26 23:33N 49°11' W 123°52'2 2.5
2015-Aug-26 22:33N 49°10' W 123°56'0 0.0
2015-Aug-26 21:33N 49°10' W 123°56'2 1.8
2015-Aug-26 20:34N 49°11' W 123°53'1 1.1
2015-Aug-26 19:33N 49°11' W 123°52'1 1.0
2015-Aug-26 18:33N 49°10' W 123°53'2 1.6
2015-Aug-26 17:34N 49°10' W 123°55'0 0.2
2015-Aug-26 16:23N 49°10' W 123°56'2 2.9
2015-Aug-26 15:33N 49°11' W 123°52'0 0.4
2015-Aug-26 14:30N 49°11' W 123°52'2 2.5
2015-Aug-26 13:33N 49°10' W 123°55'2 0.4
2015-Aug-26 07:27N 49°11' W 123°52'0 0.0
2015-Aug-26 06:27N 49°11' W 123°52'0 0.3
2015-Aug-26 05:33N 49°11' W 123°52'0 0.2
2015-Aug-26 04:32N 49°11' W 123°52'1 1.2
2015-Aug-26 03:33N 49°10' W 123°53'1 1.5
2015-Aug-26 02:33N 49°10' W 123°55'1 0.7
2015-Aug-26 01:33N 49°10' W 123°54'1 1.2
2015-Aug-26 00:33N 49°11' W 123°53'1 0.8
2015-Aug-25 23:33N 49°11' W 123°52'1 0.9
2015-Aug-25 22:33N 49°11' W 123°53'2 2.0
2015-Aug-25 21:32N 49°10' W 123°56'0 0.0
2015-Aug-25 20:30N 49°10' W 123°56'3 3.1
2015-Aug-25 19:33N 49°11' W 123°52'  
Track history (hours):
 
Tides and Currents Weather Stations Pressure Air Temp Water Temp Dewpoint Dewpoint Depression Visibility Wind Speed Wind Dir Waves Ship Positions

Quinsam

Last reported at 2015-Sep-04 18:33 UTC. Time now 2015-Sep-04 18:46 UTC.
Position N 49°10' W 123°54'.

Length 88 m; draft 1.5 m.

Type: Ship. MMSI: 316001266.

Date/timePositionNaut miles runAvg speedWind from/ knotsBaromVisibWave heightAir tempDewpointWater temp
2015-Sep-04 18:33N 49°10' W 123°54'1 1.1
2015-Sep-04 17:33N 49°10' W 123°56'1 1.1
2015-Sep-04 16:34N 49°10' W 123°54'2 1.8
2015-Sep-04 15:33N 49°11' W 123°52'0 0.0
2015-Sep-04 14:33N 49°11' W 123°52'2 2.4
2015-Sep-04 13:33N 49°10' W 123°55'2 2.3
2015-Sep-04 12:29N 49°11' W 123°52'0 0.0
2015-Sep-04 11:29N 49°11' W 123°52'0 0.0
2015-Sep-04 10:32N 49°11' W 123°52'0 0.0
2015-Sep-04 09:17N 49°11' W 123°52'0 0.0
2015-Sep-04 06:21N 49°11' W 123°52'0 0.0
2015-Sep-04 05:34N 49°11' W 123°52'0 0.3
2015-Sep-04 04:33N 49°11' W 123°52'1 1.0
2015-Sep-04 03:33N 49°10' W 123°54'0 0.3
2015-Sep-04 02:33N 49°10' W 123°54'1 1.2
2015-Sep-04 01:33N 49°10' W 123°56'0 0.1
2015-Sep-04 00:33N 49°10' W 123°56'1 1.3
2015-Sep-03 23:33N 49°10' W 123°54'2 1.6
2015-Sep-03 22:33N 49°11' W 123°52'3 2.7
2015-Sep-03 21:34N 49°10' W 123°56'0 0.2
2015-Sep-03 20:33N 49°10' W 123°56'3 2.9
2015-Sep-03 19:33N 49°11' W 123°52'0 0.1
2015-Sep-03 18:33N 49°11' W 123°52'2 2.4
2015-Sep-03 17:33N 49°10' W 123°55'0 0.4
2015-Sep-03 16:33N 49°10' W 123°56'2 2.3
2015-Sep-03 15:33N 49°11' W 123°53'1 0.7
2015-Sep-03 14:33N 49°11' W 123°52'2 2.4
2015-Sep-03 13:33N 49°10' W 123°55'2 2.3
2015-Sep-03 12:30N 49°11' W 123°52'0 0.0
2015-Sep-03 11:33N 49°11' W 123°52'0 0.0
2015-Sep-03 10:24N 49°11' W 123°52'0 0.0
2015-Sep-03 09:30N 49°11' W 123°52'0 0.0
2015-Sep-03 08:18N 49°11' W 123°52'0 0.0
2015-Sep-03 06:30N 49°11' W 123°52'3 3.0
2015-Sep-03 05:33N 49°10' W 123°56'3 2.5
2015-Sep-03 04:33N 49°11' W 123°52'0 0.1
2015-Sep-03 03:33N 49°11' W 123°52'1 1.3
2015-Sep-03 02:33N 49°10' W 123°54'1 1.0
2015-Sep-03 01:33N 49°11' W 123°53'1 0.5
2015-Sep-03 00:33N 49°11' W 123°52'0 0.1
2015-Sep-02 23:33N 49°11' W 123°52'3 2.7
2015-Sep-02 22:33N 49°10' W 123°55'0 0.2
2015-Sep-02 21:33N 49°10' W 123°56'2 1.7
2015-Sep-02 20:32N 49°11' W 123°53'1 1.2
2015-Sep-02 19:32N 49°11' W 123°52'2 2.3
2015-Sep-02 18:33N 49°10' W 123°55'1 0.6
2015-Sep-02 17:27N 49°10' W 123°56'1 0.8
2015-Sep-02 16:33N 49°10' W 123°55'2 2.2
2015-Sep-02 15:33N 49°11' W 123°52'0 0.0
2015-Sep-02 14:19N 49°11' W 123°52'2 3.2
2015-Sep-02 13:33N 49°10' W 123°55'2 2.3
2015-Sep-02 12:29N 49°11' W 123°52'0 0.0
2015-Sep-02 11:29N 49°11' W 123°52'0 0.0
2015-Sep-02 10:29N 49°11' W 123°52'0 0.0
2015-Sep-02 09:29N 49°11' W 123°52'0 0.0
2015-Sep-02 08:29N 49°11' W 123°52'0 0.0
2015-Sep-02 07:29N 49°11' W 123°52'0 0.0
2015-Sep-02 06:29N 49°11' W 123°52'1 0.6
2015-Sep-02 05:33N 49°11' W 123°52'0 0.0
2015-Sep-02 04:33N 49°11' W 123°52'1 0.9
2015-Sep-02 03:33N 49°10' W 123°54'1 1.1
2015-Sep-02 02:33N 49°11' W 123°52'0 0.2
2015-Sep-02 01:31N 49°11' W 123°52'0 0.0
2015-Sep-02 00:33N 49°11' W 123°52'2 2.1
2015-Sep-01 23:34N 49°10' W 123°55'1 0.8
2015-Sep-01 22:33N 49°10' W 123°56'1 0.9
2015-Sep-01 21:33N 49°10' W 123°55'2 2.0
2015-Sep-01 20:33N 49°11' W 123°52'0 0.0
2015-Sep-01 19:33N 49°11' W 123°52'2 2.3
2015-Sep-01 18:33N 49°10' W 123°55'1 0.6
2015-Sep-01 17:33N 49°10' W 123°56'1 0.8
2015-Sep-01 16:33N 49°10' W 123°55'2 2.1
2015-Sep-01 15:33N 49°11' W 123°52'0 0.0
2015-Sep-01 14:33N 49°11' W 123°52'3 2.9
2015-Sep-01 13:33N 49°10' W 123°56'3 2.9
2015-Sep-01 12:33N 49°11' W 123°52'0 0.0
2015-Sep-01 11:33N 49°11' W 123°52'0 0.0
2015-Sep-01 10:33N 49°11' W 123°52'0 0.0
2015-Sep-01 09:33N 49°11' W 123°52'0 0.0
2015-Sep-01 08:33N 49°11' W 123°52'0 0.0
2015-Sep-01 07:33N 49°11' W 123°52'0 0.0
2015-Sep-01 06:33N 49°11' W 123°52'0 0.5
2015-Sep-01 05:33N 49°11' W 123°52'0 0.2
2015-Sep-01 04:33N 49°11' W 123°52'1 1.2
2015-Sep-01 03:33N 49°10' W 123°54'1 1.4
2015-Sep-01 02:33N 49°11' W 123°52'0 0.0
2015-Sep-01 01:33N 49°11' W 123°52'0 0.0
2015-Sep-01 00:33N 49°11' W 123°52'2 2.0
2015-Aug-31 23:34N 49°10' W 123°54'1 0.9
2015-Aug-31 22:33N 49°10' W 123°56'1 1.2
2015-Aug-31 21:33N 49°10' W 123°54'2 1.7
2015-Aug-31 20:33N 49°11' W 123°52'0 0.0
2015-Aug-31 19:33N 49°11' W 123°52'2 2.1
2015-Aug-31 18:33N 49°10' W 123°55'1 0.8
2015-Aug-31 17:33N 49°10' W 123°56'1 1.0
2015-Aug-31 16:33N 49°10' W 123°54'2 2.0
2015-Aug-31 15:34N 49°11' W 123°52'0 0.0
2015-Aug-31 14:33N 49°11' W 123°52'3 2.7
2015-Aug-31 13:34N 49°10' W 123°56'3 2.7
2015-Aug-31 12:33N 49°11' W 123°52'0 0.0
2015-Aug-31 11:33N 49°11' W 123°52'0 0.0
2015-Aug-31 10:33N 49°11' W 123°52'0 0.0
2015-Aug-31 09:33N 49°11' W 123°52'0 0.0
2015-Aug-31 08:33N 49°11' W 123°52'0 0.0
2015-Aug-31 07:33N 49°11' W 123°52'0 0.0
2015-Aug-31 06:33N 49°11' W 123°52'0 0.5
2015-Aug-31 05:34N 49°11' W 123°52'0 0.0
2015-Aug-31 04:33N 49°11' W 123°52'1 0.8
2015-Aug-31 03:33N 49°10' W 123°53'1 1.0
2015-Aug-31 02:33N 49°11' W 123°52'0 0.2
2015-Aug-31 01:28N 49°11' W 123°52'0 0.0
2015-Aug-31 00:33N 49°11' W 123°52'0 0.4
2015-Aug-30 23:33N 49°11' W 123°52'2 2.5
2015-Aug-30 22:33N 49°10' W 123°56'3 1.4
2015-Aug-30 20:34N 49°11' W 123°52'0 0.1
2015-Aug-30 19:31N 49°11' W 123°52'2 2.0
2015-Aug-30 18:33N 49°10' W 123°54'1 0.9
2015-Aug-30 17:33N 49°10' W 123°56'1 1.5
2015-Aug-30 16:33N 49°10' W 123°54'1 1.3
2015-Aug-30 15:32N 49°11' W 123°52'3 2.8
2015-Aug-30 14:31N 49°10' W 123°56'0 0.5
2015-Aug-30 13:30N 49°10' W 123°55'2 0.3
2015-Aug-30 06:27N 49°11' W 123°52'0 0.4
2015-Aug-30 05:33N 49°11' W 123°52'0 0.1
2015-Aug-30 04:33N 49°11' W 123°52'1 0.5
2015-Aug-30 03:33N 49°10' W 123°53'1 0.6
2015-Aug-30 02:33N 49°11' W 123°52'0 0.4
2015-Aug-30 01:33N 49°11' W 123°52'0 0.0
2015-Aug-30 00:28N 49°11' W 123°52'1 1.3
2015-Aug-29 23:32N 49°10' W 123°53'2 1.7
2015-Aug-29 22:33N 49°10' W 123°56'3 1.4
2015-Aug-29 20:33N 49°11' W 123°52'0 0.1
2015-Aug-29 19:33N 49°11' W 123°52'2 2.0
2015-Aug-29 18:33N 49°10' W 123°54'1 0.9
2015-Aug-29 17:33N 49°10' W 123°56'1 1.3
2015-Aug-29 16:33N 49°11' W 123°54'1 1.3
2015-Aug-29 15:30N 49°11' W 123°52'0 0.4
2015-Aug-29 14:33N 49°11' W 123°52'3 2.8
2015-Aug-29 13:33N 49°10' W 123°56'3 0.9
2015-Aug-29 10:23N 49°11' W 123°52'0 0.0
2015-Aug-29 09:29N 49°11' W 123°52'0 0.0
2015-Aug-29 08:32N 49°11' W 123°52'0 0.0
2015-Aug-29 07:32N 49°11' W 123°52'0 0.0
2015-Aug-29 06:32N 49°11' W 123°52'1 0.6
2015-Aug-29 05:34N 49°11' W 123°52'0 0.4
2015-Aug-29 04:32N 49°11' W 123°52'1 1.0
2015-Aug-29 03:33N 49°10' W 123°53'1 0.8
2015-Aug-29 02:33N 49°11' W 123°52'0 0.4
2015-Aug-29 01:33N 49°11' W 123°52'0 0.0
2015-Aug-29 00:27N 49°11' W 123°52'2 2.0
2015-Aug-28 23:34N 49°10' W 123°54'1 1.1
2015-Aug-28 22:33N 49°10' W 123°56'1 1.1
2015-Aug-28 21:33N 49°10' W 123°54'2 1.8
2015-Aug-28 20:33N 49°11' W 123°52'0 0.0
2015-Aug-28 19:33N 49°11' W 123°52'2 2.3
2015-Aug-28 18:33N 49°10' W 123°55'1 0.6
2015-Aug-28 17:32N 49°10' W 123°56'1 1.4
2015-Aug-28 16:33N 49°10' W 123°54'2 1.5
2015-Aug-28 15:33N 49°11' W 123°52'0 0.0
2015-Aug-28 14:29N 49°11' W 123°52'2 2.5
2015-Aug-28 13:34N 49°10' W 123°55'2 1.1
2015-Aug-28 11:22N 49°11' W 123°52'3 0.6
2015-Aug-28 06:32N 49°10' W 123°56'3 2.9
2015-Aug-28 05:33N 49°11' W 123°52'0 0.2
2015-Aug-28 04:33N 49°11' W 123°52'1 0.9
2015-Aug-28 03:33N 49°10' W 123°53'1 0.6
2015-Aug-28 02:33N 49°11' W 123°52'0 0.4
2015-Aug-28 01:34N 49°11' W 123°52'0 0.0
2015-Aug-28 00:33N 49°11' W 123°52'1 0.7
2015-Aug-27 23:33N 49°11' W 123°53'2 2.2
2015-Aug-27 22:32N 49°10' W 123°56'0 0.0
2015-Aug-27 21:33N 49°10' W 123°56'3 2.7
2015-Aug-27 20:31N 49°11' W 123°52'0 0.1
2015-Aug-27 19:33N 49°11' W 123°52'2 2.4
2015-Aug-27 18:33N 49°10' W 123°55'1 0.5
2015-Aug-27 17:33N 49°10' W 123°56'0 0.4
2015-Aug-27 16:33N 49°10' W 123°55'2 2.0
2015-Aug-27 15:29N 49°11' W 123°52'0 0.4
2015-Aug-27 14:32N 49°11' W 123°52'2 2.5
2015-Aug-27 13:33N 49°10' W 123°55'2 1.7
2015-Aug-27 12:10N 49°11' W 123°52'0 0.0
2015-Aug-27 11:28N 49°11' W 123°52'0 0.0
2015-Aug-27 09:10N 49°11' W 123°52'0 0.0
2015-Aug-27 08:28N 49°11' W 123°52'0 0.0
2015-Aug-27 07:28N 49°11' W 123°52'0 0.4
2015-Aug-27 06:32N 49°11' W 123°52'3 2.6
2015-Aug-27 05:33N 49°10' W 123°56'3 2.9
2015-Aug-27 04:33N 49°11' W 123°52'1 1.3
2015-Aug-27 03:33N 49°10' W 123°53'1 1.5
2015-Aug-27 02:33N 49°10' W 123°56'1 1.5
2015-Aug-27 01:33N 49°10' W 123°53'1 1.2
2015-Aug-27 00:31N 49°11' W 123°52'0 0.4
2015-Aug-26 23:33N 49°11' W 123°52'2 2.5
2015-Aug-26 22:33N 49°10' W 123°56'0 0.0
2015-Aug-26 21:33N 49°10' W 123°56'2 1.8
2015-Aug-26 20:34N 49°11' W 123°53'1 1.1
2015-Aug-26 19:33N 49°11' W 123°52'1 1.0
2015-Aug-26 18:33N 49°10' W 123°53'2 1.6
2015-Aug-26 17:34N 49°10' W 123°55'0 0.2
2015-Aug-26 16:23N 49°10' W 123°56'2 2.9
2015-Aug-26 15:33N 49°11' W 123°52'0 0.4
2015-Aug-26 14:30N 49°11' W 123°52'2 2.5
2015-Aug-26 13:33N 49°10' W 123°55'2 0.4
2015-Aug-26 07:27N 49°11' W 123°52'0 0.0
2015-Aug-26 06:27N 49°11' W 123°52'0 0.3
2015-Aug-26 05:33N 49°11' W 123°52'0 0.2
2015-Aug-26 04:32N 49°11' W 123°52'1 1.2
2015-Aug-26 03:33N 49°10' W 123°53'1 1.5
2015-Aug-26 02:33N 49°10' W 123°55'1 0.7
2015-Aug-26 01:33N 49°10' W 123°54'1 1.2
2015-Aug-26 00:33N 49°11' W 123°53'1 0.8
2015-Aug-25 23:33N 49°11' W 123°52'1 0.9
2015-Aug-25 22:33N 49°11' W 123°53'2 2.0
2015-Aug-25 21:32N 49°10' W 123°56'0 0.0
2015-Aug-25 20:30N 49°10' W 123°56'3 3.1
2015-Aug-25 19:33N 49°11' W 123°52'  

Dump ship's entire track history